Terminal Aerodrome Forecast
Issued by NWS Milwaukee/Sullivan, WI

Home | Current Version | Previous Version | Text Only | Print | Product List | Glossary On
Versions: 1 2 3 4 5 6 7 8 9 10 11 12 13 14 15 16 17 18 19 20 21 22 23 24 25 26 27 28 29 30 31 32 33 34 35 36 37 38 39 40 41 42 43 44 45 46 47 48 49 50
000
FTUS43 KMKX 241413 AAE
TAFMKE
TAF AMD
KMKE 241413Z 2414/2518 23010KT P6SM FEW020 BKN110
     FM241700 21009G18KT P6SM SCT015 OVC020
     FM242100 22010KT P6SM BKN040 BKN060
     FM250200 23005KT P6SM BKN040
     FM250500 24004KT 5SM BR VCTS BKN040CB
     FM251200 27005KT P6SM BKN045=

USA.gov is the U.S. government's official web portal to all federal, state and local government web resources and services.